createdAt,value
2022-07-25T00:00:44.576Z,100800.44
2022-07-25T00:01:46.814Z,100797.16
2022-07-25T00:02:50.543Z,100809.41
2022-07-25T00:03:52.660Z,100806.94
2022-07-25T00:04:55.870Z,100808.28
2022-07-25T00:05:59.579Z,100799.56
2022-07-25T00:07:02.743Z,100801.78
2022-07-25T00:08:05.547Z,100804.75
2022-07-25T00:09:09.461Z,100796.84
2022-07-25T00:10:11.713Z,100791.69
2022-07-25T00:11:15.093Z,100796.59
2022-07-25T00:12:20.602Z,100794.94
2022-07-25T00:13:23.640Z,100790.59
2022-07-25T00:14:26.144Z,100798.16
2022-07-25T00:15:31.293Z,100791.09
2022-07-25T00:16:33.291Z,100795.72
2022-07-25T00:17:36.662Z,100789.72
2022-07-25T00:18:38.637Z,100782.66
2022-07-25T00:19:42.112Z,100788.09
2022-07-25T00:20:44.129Z,100793.53
2022-07-25T00:21:48.566Z,100783.72
2022-07-25T00:22:50.601Z,100787.53
2022-07-25T00:23:55.987Z,100790.25
2022-07-25T00:24:57.992Z,100790.25
2022-07-25T00:26:00.956Z,100790.53
2022-07-25T00:27:03.097Z,100786.16
2022-07-25T00:28:06.157Z,100785.38
2022-07-25T00:29:08.319Z,100789.97
2022-07-25T00:30:12.006Z,100783.72
2022-07-25T00:31:14.115Z,100781.25
2022-07-25T00:32:17.287Z,100783.16
2022-07-25T00:33:19.334Z,100779.91
2022-07-25T00:34:22.376Z,100779.09
2022-07-25T00:35:24.433Z,100784.78
2022-07-25T00:36:27.523Z,100780.97
2022-07-25T00:37:30.975Z,100783.97
2022-07-25T00:38:34.020Z,100780.41
2022-07-25T00:39:36.610Z,100780.69
2022-07-25T00:40:40.104Z,100777.19
2022-07-25T00:41:42.146Z,100779.06
2022-07-25T00:42:45.250Z,100774.72
2022-07-25T00:43:47.314Z,100777.69
2022-07-25T00:44:50.393Z,100778.50
2022-07-25T00:45:52.428Z,100766.81
2022-07-25T00:46:56.968Z,100772.25
2022-07-25T00:47:59.984Z,100775.78
2022-07-25T00:49:02.100Z,100769.31
2022-07-25T00:50:05.954Z,100778.25
2022-07-25T00:51:10.524Z,100766.59
2022-07-25T00:52:13.710Z,100769.03
2022-07-25T00:53:17.335Z,100766.31
2022-07-25T00:54:21.167Z,100762.25
2022-07-25T00:55:26.348Z,100755.97
2022-07-25T00:56:29.862Z,100760.09
2022-07-25T00:57:31.923Z,100759.00
2022-07-25T00:58:35.070Z,100764.16
2022-07-25T00:59:37.171Z,100761.19
2022-07-25T01:00:40.564Z,100759.00
2022-07-25T01:01:42.836Z,100749.78
2022-07-25T01:02:46.060Z,100753.88
2022-07-25T01:03:48.135Z,100750.09
2022-07-25T01:04:51.368Z,100751.44
2022-07-25T01:05:54.040Z,100744.94
2022-07-25T01:06:57.134Z,100745.72
2022-07-25T01:08:00.209Z,100753.38
2022-07-25T01:09:04.293Z,100748.50
2022-07-25T01:10:08.674Z,100749.31
2022-07-25T01:11:10.976Z,100746.34
2022-07-25T01:12:14.068Z,100752.31
2022-07-25T01:13:18.113Z,100759.38
2022-07-25T01:14:22.980Z,100751.22
2022-07-25T01:15:26.792Z,100749.34
2022-07-25T01:16:28.906Z,100758.03
2022-07-25T01:17:32.004Z,100750.69
2022-07-25T01:18:34.649Z,100753.97
2022-07-25T01:19:37.764Z,100750.19
2022-07-25T01:20:41.173Z,100761.84
2022-07-25T01:21:44.176Z,100743.38
2022-07-25T01:22:46.645Z,100743.09
2022-07-25T01:23:49.674Z,100734.69
2022-07-25T01:24:51.681Z,100737.94
2022-07-25T01:25:54.945Z,100741.50
2022-07-25T01:26:57.041Z,100740.94
2022-07-25T01:28:00.051Z,100738.22
2022-07-25T01:29:02.191Z,100737.97
2022-07-25T01:30:07.062Z,100740.41
2022-07-25T01:31:09.199Z,100733.91
2022-07-25T01:32:13.460Z,100738.25
2022-07-25T01:33:16.427Z,100734.44
2022-07-25T01:34:19.414Z,100736.06
2022-07-25T01:35:21.508Z,100740.13
2022-07-25T01:36:26.745Z,100743.69
2022-07-25T01:37:28.836Z,100733.63
2022-07-25T01:38:31.808Z,100732.53
2022-07-25T01:39:33.878Z,100732.28
2022-07-25T01:40:37.196Z,100731.19
2022-07-25T01:41:39.275Z,100732.81
2022-07-25T01:42:42.547Z,100727.38
2022-07-25T01:43:44.540Z,100724.41
2022-07-25T01:44:47.555Z,100733.09
2022-07-25T01:45:50.277Z,100723.06
2022-07-25T01:46:53.605Z,100726.31
2022-07-25T01:47:55.683Z,100722.50
2022-07-25T01:48:58.829Z,100717.06
2022-07-25T01:50:00.938Z,100717.91
2022-07-25T01:51:03.964Z,100714.91
2022-07-25T01:52:07.629Z,100718.41
2022-07-25T01:53:10.579Z,100713.25
2022-07-25T01:54:12.688Z,100714.91
2022-07-25T01:55:15.830Z,100715.69
2022-07-25T01:56:17.967Z,100715.69
2022-07-25T01:57:30.721Z,100710.25
2022-07-25T01:58:34.274Z,100709.19
2022-07-25T01:59:38.593Z,100709.19
2022-07-25T02:00:42.594Z,100705.66
2022-07-25T02:01:45.365Z,100702.94
2022-07-25T02:02:48.703Z,100706.47
2022-07-25T02:03:50.855Z,100711.91
2022-07-25T02:04:54.271Z,100702.94
2022-07-25T02:05:57.093Z,100706.47
2022-07-25T02:07:00.187Z,100695.59
2022-07-25T02:08:03.882Z,100701.03
2022-07-25T02:09:06.866Z,100699.38
2022-07-25T02:10:09.577Z,100702.09
2022-07-25T02:11:12.634Z,100694.78
2022-07-25T02:12:14.700Z,100696.69
2022-07-25T02:13:17.679Z,100692.34
2022-07-25T02:14:19.734Z,100693.16
2022-07-25T02:15:22.749Z,100691.50
2022-07-25T02:16:28.732Z,100683.34
2022-07-25T02:17:32.375Z,100691.50
2022-07-25T02:18:34.519Z,100682.56
2022-07-25T02:19:37.697Z,100680.63
2022-07-25T02:20:39.749Z,100684.47
2022-07-25T02:21:44.014Z,100683.34
2022-07-25T02:22:46.049Z,100679.84
2022-07-25T02:23:50.471Z,100681.47
2022-07-25T02:24:52.475Z,100678.75
2022-07-25T02:25:55.502Z,100669.78
2022-07-25T02:26:57.838Z,100668.97
2022-07-25T02:28:01.635Z,100675.22
2022-07-25T02:29:03.739Z,100669.78
2022-07-25T02:30:08.099Z,100670.59
2022-07-25T02:31:10.539Z,100675.22
2022-07-25T02:32:13.627Z,100666.25
2022-07-25T02:33:15.625Z,100666.25
2022-07-25T02:34:18.716Z,100661.63
2022-07-25T02:35:21.078Z,100668.16
2022-07-25T02:36:24.073Z,100661.63
2022-07-25T02:37:26.164Z,100662.72
2022-07-25T02:38:29.142Z,100658.38
2022-07-25T02:39:32.589Z,100653.75
2022-07-25T02:40:35.604Z,100666.53
2022-07-25T02:41:37.713Z,100651.03
2022-07-25T02:42:40.923Z,100650.22
2022-07-25T02:43:43.059Z,100650.22
2022-07-25T02:44:46.151Z,100655.66
2022-07-25T02:45:49.229Z,100654.00
2022-07-25T02:46:52.350Z,100654.00
2022-07-25T02:47:54.416Z,100653.19
2022-07-25T02:48:57.678Z,100651.56
2022-07-25T02:49:59.810Z,100645.31
2022-07-25T02:51:02.913Z,100645.31
2022-07-25T02:52:05.292Z,100644.53
2022-07-25T02:53:08.296Z,100646.41
2022-07-25T02:54:10.775Z,100650.22
2022-07-25T02:55:15.479Z,100645.59
2022-07-25T02:56:17.925Z,100643.97
2022-07-25T02:57:24.170Z,100637.72
2022-07-25T02:58:26.240Z,100636.66
2022-07-25T02:59:32.265Z,100643.97
2022-07-25T03:00:34.842Z,100638.53
2022-07-25T03:01:38.046Z,100636.88
2022-07-25T03:02:40.133Z,100644.25
2022-07-25T03:03:43.223Z,100640.69
2022-07-25T03:04:45.303Z,100639.88
2022-07-25T03:05:48.372Z,100633.91
2022-07-25T03:06:50.429Z,100630.38
2022-07-25T03:07:53.452Z,100636.88
2022-07-25T03:08:55.459Z,100631.44
2022-07-25T03:09:58.547Z,100629.84
2022-07-25T03:11:01.939Z,100630.13
2022-07-25T03:12:05.541Z,100627.41
2022-07-25T03:13:07.537Z,100630.94
2022-07-25T03:14:10.748Z,100628.22
2022-07-25T03:15:13.844Z,100627.41
2022-07-25T03:16:16.957Z,100629.00
2022-07-25T03:17:19.042Z,100611.91
2022-07-25T03:18:22.043Z,100621.13
2022-07-25T03:19:24.088Z,100615.69
2022-07-25T03:20:27.321Z,100616.81
2022-07-25T03:21:29.364Z,100621.13
2022-07-25T03:22:32.550Z,100615.69
2022-07-25T03:23:34.604Z,100612.97
2022-07-25T03:24:37.700Z,100616.81
2022-07-25T03:25:39.781Z,100617.34
2022-07-25T03:26:44.174Z,100616.53
2022-07-25T03:27:46.257Z,100612.72
2022-07-25T03:28:49.234Z,100612.97
2022-07-25T03:29:51.279Z,100600.22
2022-07-25T03:30:54.314Z,100605.66
2022-07-25T03:31:56.449Z,100606.47
2022-07-25T03:32:59.643Z,100598.56
2022-07-25T03:34:01.639Z,100602.38
2022-07-25T03:35:05.167Z,100592.34
2022-07-25T03:36:07.922Z,100601.56
2022-07-25T03:37:10.971Z,100599.94
2022-07-25T03:38:13.012Z,100592.06
2022-07-25T03:39:16.103Z,100594.78
2022-07-25T03:40:18.224Z,100596.69
2022-07-25T03:41:21.241Z,100593.16
2022-07-25T03:42:26.734Z,100589.91
2022-07-25T03:43:31.691Z,100587.19
2022-07-25T03:44:33.720Z,100592.63
2022-07-25T03:45:36.960Z,100587.47
2022-07-25T03:46:39.033Z,100583.94
2022-07-25T03:47:42.075Z,100580.38
2022-07-25T03:48:44.113Z,100582.28
2022-07-25T03:49:47.159Z,100585.81
2022-07-25T03:50:49.248Z,100583.09
2022-07-25T03:51:52.249Z,100577.41
2022-07-25T03:52:54.308Z,100576.31
2022-07-25T03:54:03.271Z,100567.06
2022-07-25T03:55:07.679Z,100577.94
2022-07-25T03:56:09.713Z,100582.28
2022-07-25T03:57:12.823Z,100577.66
2022-07-25T03:58:16.219Z,100570.34
2022-07-25T03:59:21.485Z,100570.06
2022-07-25T04:00:23.516Z,100568.16
2022-07-25T04:01:26.932Z,100561.91
2022-07-25T04:02:29.204Z,100571.41
2022-07-25T04:03:33.055Z,100560.53
2022-07-25T04:04:36.111Z,100563.25
2022-07-25T04:05:38.169Z,100562.19
2022-07-25T04:06:42.141Z,100556.75
2022-07-25T04:07:44.188Z,100567.63
2022-07-25T04:08:47.487Z,100561.09
2022-07-25T04:09:50.656Z,100552.94
2022-07-25T04:10:52.699Z,100558.38
2022-07-25T04:11:55.814Z,100559.19
2022-07-25T04:12:57.852Z,100557.56
2022-07-25T04:14:02.915Z,100549.94
2022-07-25T04:15:07.043Z,100554.59
2022-07-25T04:16:13.006Z,100550.75
2022-07-25T04:17:19.358Z,100552.38
2022-07-25T04:18:28.625Z,100544.22
2022-07-25T04:19:31.967Z,100541.50
2022-07-25T04:20:37.449Z,100539.34
2022-07-25T04:21:40.881Z,100544.78
2022-07-25T04:22:46.715Z,100538.28
2022-07-25T04:23:50.935Z,100534.44
2022-07-25T04:24:53.078Z,100530.13
2022-07-25T04:25:56.120Z,100532.56
2022-07-25T04:26:58.189Z,100529.84
2022-07-25T04:28:01.285Z,100530.38
2022-07-25T04:29:05.765Z,100527.66
2022-07-25T04:30:09.214Z,100534.44
2022-07-25T04:31:12.310Z,100525.22
2022-07-25T04:32:14.828Z,100525.72
2022-07-25T04:33:18.813Z,100512.97
2022-07-25T04:34:21.093Z,100521.66
2022-07-25T04:35:24.180Z,100520.28
2022-07-25T04:36:27.686Z,100525.44
2022-07-25T04:37:29.781Z,100512.66
2022-07-25T04:38:32.971Z,100515.94
2022-07-25T04:39:34.978Z,100514.84
2022-07-25T04:40:38.235Z,100512.66
2022-07-25T04:41:40.289Z,100511.59
2022-07-25T04:42:43.450Z,100513.19
2022-07-25T04:43:48.753Z,100504.75
2022-07-25T04:44:53.424Z,100503.66
2022-07-25T04:45:55.570Z,100505.84
2022-07-25T04:46:58.652Z,100503.66
2022-07-25T04:48:01.465Z,100501.75
2022-07-25T04:49:04.786Z,100500.94
2022-07-25T04:50:08.256Z,100501.47
2022-07-25T04:51:11.379Z,100508.28
2022-07-25T04:52:13.483Z,100498.47
2022-07-25T04:53:17.018Z,100494.69
2022-07-25T04:54:19.073Z,100499.00
2022-07-25T04:55:22.400Z,100492.50
2022-07-25T04:56:25.538Z,100492.22
2022-07-25T04:57:27.705Z,100489.22
2022-07-25T04:58:32.729Z,100497.09
2022-07-25T04:59:35.738Z,100495.19
2022-07-25T05:00:39.440Z,100488.69
2022-07-25T05:01:42.590Z,100488.69
2022-07-25T05:02:44.664Z,100479.44
2022-07-25T05:03:49.757Z,100485.69
2022-07-25T05:04:53.109Z,100487.59
2022-07-25T05:05:56.184Z,100482.97
2022-07-25T05:06:59.353Z,100485.41
2022-07-25T05:08:02.661Z,100478.88
2022-07-25T05:09:04.744Z,100473.97
2022-07-25T05:10:08.501Z,100481.03
2022-07-25T05:11:10.659Z,100470.97
2022-07-25T05:12:13.735Z,100476.16
2022-07-25T05:13:16.305Z,100473.44
2022-07-25T05:14:19.447Z,100473.94
2022-07-25T05:15:23.616Z,100468.50
2022-07-25T05:16:28.051Z,100472.56
2022-07-25T05:17:30.296Z,100468.75
2022-07-25T05:18:34.912Z,100463.84
2022-07-25T05:19:37.234Z,100469.53
2022-07-25T05:20:40.633Z,100466.25
2022-07-25T05:21:42.676Z,100467.63
2022-07-25T05:22:45.741Z,100464.63
2022-07-25T05:23:47.847Z,100464.03
2022-07-25T05:24:50.926Z,100458.03
2022-07-25T05:25:53.046Z,100458.28
2022-07-25T05:26:56.177Z,100455.00
2022-07-25T05:27:58.709Z,100457.16
2022-07-25T05:29:01.820Z,100462.84
2022-07-25T05:30:05.950Z,100455.75
2022-07-25T05:31:09.326Z,100454.91
2022-07-25T05:32:12.795Z,100454.31
2022-07-25T05:33:15.884Z,100460.00
2022-07-25T05:34:18.019Z,100456.75
2022-07-25T05:35:21.141Z,100447.19
2022-07-25T05:36:24.181Z,100451.25
2022-07-25T05:37:26.742Z,100456.13
2022-07-25T05:38:30.049Z,100450.13
2022-07-25T05:39:32.101Z,100450.66
2022-07-25T05:40:35.140Z,100451.22
2022-07-25T05:41:37.287Z,100446.56
2022-07-25T05:42:40.418Z,100443.56
2022-07-25T05:43:46.155Z,100435.09
2022-07-25T05:44:49.426Z,100445.44
2022-07-25T05:45:51.558Z,100435.34
2022-07-25T05:46:54.713Z,100427.69
2022-07-25T05:47:59.344Z,100432.84
2022-07-25T05:49:01.822Z,100430.66
2022-07-25T05:50:05.399Z,100430.09
2022-07-25T05:51:07.483Z,100437.69
2022-07-25T05:52:13.104Z,100434.13
2022-07-25T05:53:15.455Z,100431.63
2022-07-25T05:54:18.484Z,100436.22
2022-07-25T05:55:21.538Z,100436.44
2022-07-25T05:56:23.669Z,100429.59
2022-07-25T05:57:26.749Z,100425.50
2022-07-25T05:58:30.048Z,100425.22
2022-07-25T05:59:33.398Z,100429.25
2022-07-25T06:00:36.648Z,100426.28
2022-07-25T06:01:38.781Z,100416.97
2022-07-25T06:02:42.036Z,100420.25
2022-07-25T06:03:45.581Z,100415.81
2022-07-25T06:04:48.566Z,100410.91
2022-07-25T06:05:50.658Z,100419.31
2022-07-25T06:06:53.699Z,100418.44
2022-07-25T06:07:56.025Z,100411.31
2022-07-25T06:08:59.133Z,100412.38
2022-07-25T06:10:01.855Z,100406.84
2022-07-25T06:11:06.010Z,100411.44
2022-07-25T06:12:11.451Z,100406.53
2022-07-25T06:13:13.497Z,100405.13
2022-07-25T06:14:17.817Z,100409.97
2022-07-25T06:15:26.539Z,100405.88
2022-07-25T06:16:29.189Z,100408.81
2022-07-25T06:17:32.824Z,100405.22
2022-07-25T06:18:34.965Z,100399.16
2022-07-25T06:19:39.400Z,100404.03
2022-07-25T06:20:41.498Z,100396.91
2022-07-25T06:21:44.524Z,100397.13
2022-07-25T06:22:46.648Z,100396.53
2022-07-25T06:23:49.711Z,100396.75
2022-07-25T06:24:52.759Z,100397.81
2022-07-25T06:25:54.863Z,100394.78
2022-07-25T06:26:57.945Z,100396.91
2022-07-25T06:28:01.108Z,100399.03
2022-07-25T06:29:04.238Z,100394.94
2022-07-25T06:30:18.671Z,100393.22
2022-07-25T06:31:23.143Z,100400.53
2022-07-25T06:32:25.254Z,100392.28
2022-07-25T06:33:28.297Z,100384.03
2022-07-25T06:34:31.602Z,100392.94
2022-07-25T06:35:35.309Z,100387.09
2022-07-25T06:36:38.422Z,100388.97
2022-07-25T06:37:40.498Z,100394.03
2022-07-25T06:38:43.886Z,100389.00
2022-07-25T06:39:46.290Z,100391.34
2022-07-25T06:40:49.475Z,100389.03
2022-07-25T06:41:51.582Z,100389.44
2022-07-25T06:42:54.658Z,100387.44
2022-07-25T06:43:56.817Z,100386.22
2022-07-25T06:45:00.198Z,100385.03
2022-07-25T06:46:02.806Z,100393.69
2022-07-25T06:47:06.213Z,100393.59
2022-07-25T06:48:09.371Z,100402.50
2022-07-25T06:49:12.474Z,100400.47
2022-07-25T06:50:18.506Z,100402.31
2022-07-25T06:51:25.249Z,100400.59
2022-07-25T06:52:28.771Z,100393.41
2022-07-25T06:53:30.826Z,100393.91
2022-07-25T06:54:34.176Z,100391.38
2022-07-25T06:55:37.500Z,100392.19
2022-07-25T06:56:39.661Z,100388.03
2022-07-25T06:57:43.192Z,100387.75
2022-07-25T06:58:46.327Z,100387.13
2022-07-25T06:59:48.427Z,100386.81
2022-07-25T07:00:51.675Z,100392.81
2022-07-25T07:01:53.822Z,100385.91
2022-07-25T07:02:59.703Z,100380.63
2022-07-25T07:04:01.797Z,100380.84
2022-07-25T07:05:05.227Z,100387.31
2022-07-25T07:06:09.362Z,100382.84
2022-07-25T07:07:13.916Z,100380.63
2022-07-25T07:08:15.979Z,100374.56
2022-07-25T07:09:19.049Z,100379.94
2022-07-25T07:10:22.090Z,100382.84
2022-07-25T07:11:25.568Z,100376.47
2022-07-25T07:12:27.563Z,100368.97
2022-07-25T07:13:31.046Z,100369.66
2022-07-25T07:14:33.083Z,100373.06
2022-07-25T07:15:36.367Z,100371.84
2022-07-25T07:16:42.409Z,100368.69
2022-07-25T07:17:44.922Z,100361.16
2022-07-25T07:18:49.449Z,100367.81
2022-07-25T07:19:51.810Z,100363.53
2022-07-25T07:20:55.361Z,100365.06
2022-07-25T07:21:57.421Z,100367.84
2022-07-25T07:23:03.202Z,100363.53
2022-07-25T07:24:05.723Z,100367.97
2022-07-25T07:25:28.501Z,100363.06
2022-07-25T07:26:31.725Z,100356.47
2022-07-25T07:27:33.790Z,100363.28
2022-07-25T07:28:36.829Z,100363.88
2022-07-25T07:29:38.975Z,100353.25
2022-07-25T07:32:06.604Z,100345.25
2022-07-25T07:33:09.713Z,100352.72
2022-07-25T07:34:11.809Z,100352.75
2022-07-25T07:35:19.409Z,100346.44
2022-07-25T07:36:23.314Z,100349.56
2022-07-25T07:37:25.439Z,100351.50
2022-07-25T07:38:29.827Z,100343.91
2022-07-25T07:39:32.045Z,100343.75
2022-07-25T07:40:35.063Z,100340.06
2022-07-25T07:41:37.157Z,100337.47
2022-07-25T07:42:41.985Z,100333.75
2022-07-25T07:43:45.042Z,100337.50
2022-07-25T07:44:47.033Z,100332.94
2022-07-25T07:45:50.059Z,100342.16
2022-07-25T07:46:52.062Z,100340.38
2022-07-25T07:47:55.879Z,100341.34
2022-07-25T07:48:58.062Z,100332.47
2022-07-25T07:50:01.244Z,100326.63
2022-07-25T07:51:04.711Z,100329.53
2022-07-25T07:52:06.882Z,100329.53
2022-07-25T07:53:10.064Z,100327.94
2022-07-25T07:54:32.153Z,100323.22
2022-07-25T07:55:48.511Z,100322.44
2022-07-25T07:56:51.584Z,100316.78
2022-07-25T07:57:53.686Z,100319.22
2022-07-25T07:58:56.691Z,100314.53
2022-07-25T07:59:58.684Z,100309.50
2022-07-25T08:01:01.718Z,100314.38
2022-07-25T08:02:03.869Z,100317.59
2022-07-25T08:03:08.765Z,100317.44
2022-07-25T08:04:11.851Z,100312.91
2022-07-25T08:05:13.967Z,100313.88
2022-07-25T08:06:17.010Z,100304.66
2022-07-25T08:07:20.045Z,100311.91
2022-07-25T08:08:26.647Z,100310.94
2022-07-25T08:09:33.584Z,100306.88
2022-07-25T08:10:38.507Z,100308.31
2022-07-25T08:11:41.551Z,100303.44
2022-07-25T08:12:43.658Z,100297.78
2022-07-25T08:13:46.666Z,100314.06
2022-07-25T08:14:48.730Z,100301.31
2022-07-25T08:15:54.350Z,100311.34
2022-07-25T08:16:57.437Z,100306.78
2022-07-25T08:18:00.446Z,100308.53
2022-07-25T08:19:03.480Z,100307.53
2022-07-25T08:20:27.953Z,100309.00
2022-07-25T08:21:31.462Z,100304.41
2022-07-25T08:22:37.255Z,100297.91
2022-07-25T08:23:40.351Z,100291.78
2022-07-25T08:24:43.754Z,100295.78
2022-07-25T08:25:47.212Z,100303.38
2022-07-25T08:26:49.236Z,100297.22
2022-07-25T08:27:53.318Z,100298.16
2022-07-25T08:29:17.446Z,100293.63
2022-07-25T08:30:19.427Z,100291.13
2022-07-25T08:31:22.625Z,100291.41
2022-07-25T08:32:24.704Z,100281.50
2022-07-25T08:33:28.386Z,100285.31
2022-07-25T08:34:30.397Z,100281.38
2022-07-25T08:35:35.089Z,100281.31
2022-07-25T08:36:37.146Z,100285.94
2022-07-25T08:37:40.178Z,100279.53
2022-07-25T08:38:43.264Z,100273.63
2022-07-25T08:39:46.725Z,100280.66
2022-07-25T08:40:50.793Z,100277.81
2022-07-25T08:41:53.016Z,100280.47
2022-07-25T08:42:58.453Z,100265.69
2022-07-25T08:44:03.982Z,100272.13
2022-07-25T08:45:08.271Z,100266.28
2022-07-25T08:46:12.391Z,100268.69
2022-07-25T08:47:15.841Z,100265.94
2022-07-25T08:48:20.867Z,100270.75
2022-07-25T08:49:23.449Z,100262.94
2022-07-25T08:50:28.753Z,100267.78
2022-07-25T08:51:33.302Z,100260.78
2022-07-25T08:52:37.661Z,100264.47
2022-07-25T08:53:41.200Z,100255.19
2022-07-25T08:54:45.392Z,100265.66
2022-07-25T08:55:49.788Z,100263.47
2022-07-25T08:56:52.787Z,100266.38
2022-07-25T08:57:54.921Z,100268.09
2022-07-25T08:58:59.002Z,100255.19
2022-07-25T09:00:02.558Z,100260.03
2022-07-25T09:01:05.822Z,100263.22
2022-07-25T09:02:10.776Z,100259.81
2022-07-25T09:03:14.538Z,100264.63
2022-07-25T09:04:18.384Z,100257.94
2022-07-25T09:05:22.246Z,100256.81
2022-07-25T09:06:25.368Z,100266.22
2022-07-25T09:07:31.644Z,100260.72
2022-07-25T09:08:34.658Z,100257.06
2022-07-25T09:09:38.861Z,100263.22
2022-07-25T09:10:47.271Z,100263.59
2022-07-25T09:11:51.642Z,100255.19
2022-07-25T09:12:55.412Z,100258.28
2022-07-25T09:14:03.072Z,100250.84
2022-07-25T09:15:10.002Z,100259.94
2022-07-25T09:16:14.326Z,100258.41
2022-07-25T09:17:22.376Z,100246.69
2022-07-25T09:18:27.338Z,100248.44
2022-07-25T09:19:31.600Z,100250.94
2022-07-25T09:20:38.827Z,100249.56
2022-07-25T09:21:43.249Z,100248.19
2022-07-25T09:22:47.321Z,100250.81
2022-07-25T09:23:49.334Z,100243.94
2022-07-25T09:24:52.389Z,100245.75
2022-07-25T09:26:03.225Z,100243.66
2022-07-25T09:27:12.709Z,100247.06
2022-07-25T09:28:17.669Z,100238.66
2022-07-25T09:29:23.287Z,100254.75
2022-07-25T09:30:25.358Z,100243.56
2022-07-25T09:31:34.998Z,100237.06
2022-07-25T09:32:38.127Z,100240.41
2022-07-25T09:33:47.569Z,100242.09
2022-07-25T09:34:51.718Z,100248.53
2022-07-25T09:35:55.075Z,100235.16
2022-07-25T09:36:58.298Z,100231.69
2022-07-25T09:38:11.653Z,100234.09
2022-07-25T09:39:13.769Z,100231.34
2022-07-25T09:40:17.001Z,100241.22
2022-07-25T09:41:19.865Z,100242.47
2022-07-25T09:42:26.659Z,100237.41
2022-07-25T09:43:39.644Z,100237.06
2022-07-25T09:44:41.789Z,100237.06
2022-07-25T09:45:50.471Z,100233.84
2022-07-25T09:46:52.927Z,100236.16
2022-07-25T09:47:57.848Z,100232.59
2022-07-25T09:49:00.992Z,100226.63
2022-07-25T09:50:05.098Z,100233.28
2022-07-25T09:51:07.470Z,100230.88
2022-07-25T09:52:11.002Z,100228.47
2022-07-25T09:53:14.191Z,100222.13
2022-07-25T09:54:16.337Z,100227.66
2022-07-25T09:55:20.488Z,100225.72
2022-07-25T09:56:23.513Z,100220.63
2022-07-25T09:57:27.778Z,100227.41
2022-07-25T09:58:31.575Z,100214.03
2022-07-25T09:59:34.566Z,100218.53
2022-07-25T10:00:41.139Z,100228.03
2022-07-25T10:01:51.391Z,100223.78
2022-07-25T10:03:03.038Z,100216.75
2022-07-25T10:04:15.545Z,100220.34
2022-07-25T10:05:28.894Z,100215.59
2022-07-25T10:06:39.971Z,100224.69
2022-07-25T10:07:45.720Z,100217.22
2022-07-25T10:08:50.417Z,100216.03
2022-07-25T10:09:55.810Z,100225.50
2022-07-25T10:10:58.914Z,100216.84
2022-07-25T10:12:06.033Z,100223.97
2022-07-25T10:13:15.191Z,100230.22
2022-07-25T10:14:19.153Z,100220.34
2022-07-25T10:15:21.269Z,100215.50
2022-07-25T10:16:25.647Z,100218.94
2022-07-25T10:17:28.825Z,100225.63
2022-07-25T10:18:32.611Z,100222.06
2022-07-25T10:19:47.388Z,100219.66
2022-07-25T10:20:54.839Z,100220.47
2022-07-25T10:21:56.829Z,100214.94
2022-07-25T10:22:59.924Z,100222.88
2022-07-25T10:24:05.426Z,100213.41
2022-07-25T10:25:11.798Z,100229.63
2022-07-25T10:26:16.438Z,100221.34
2022-07-25T10:27:24.447Z,100214.69
2022-07-25T10:28:41.573Z,100217.09
2022-07-25T10:29:44.630Z,100214.69
2022-07-25T10:30:46.902Z,100216.28
2022-07-25T10:31:51.811Z,100220.66
2022-07-25T10:32:58.374Z,100207.19
2022-07-25T10:34:06.863Z,100212.72
2022-07-25T10:35:16.606Z,100214.22
2022-07-25T10:36:20.733Z,100210.22
2022-07-25T10:37:28.079Z,100211.72
2022-07-25T10:38:31.276Z,100207.28
2022-07-25T10:39:39.693Z,100209.13
2022-07-25T10:40:43.432Z,100199.97
2022-07-25T10:41:53.131Z,100203.41
2022-07-25T10:43:02.971Z,100208.50
2022-07-25T10:44:13.992Z,100200.53
2022-07-25T10:45:18.093Z,100204.13
2022-07-25T10:46:23.672Z,100206.88
2022-07-25T10:47:28.209Z,100199.03
2022-07-25T10:48:33.245Z,100206.25
2022-07-25T10:49:37.626Z,100198.06
2022-07-25T10:50:56.256Z,100204.50
2022-07-25T10:52:01.436Z,100198.25
2022-07-25T10:53:09.291Z,100198.34
2022-07-25T10:54:18.053Z,100202.34
2022-07-25T10:55:23.823Z,100198.91
2022-07-25T10:56:28.702Z,100190.63
2022-07-25T10:57:32.161Z,100199.00
2022-07-25T10:58:46.925Z,100190.81
2022-07-25T10:59:51.372Z,100199.56
2022-07-25T11:00:53.939Z,100198.84
2022-07-25T11:01:57.507Z,100190.91
2022-07-25T11:02:59.667Z,100196.06
2022-07-25T11:04:05.929Z,100193.31
2022-07-25T11:05:09.920Z,100190.53
2022-07-25T11:06:13.699Z,100191.72
2022-07-25T11:07:18.641Z,100194.03
2022-07-25T11:08:31.044Z,100184.59
2022-07-25T11:09:34.311Z,100189.66
2022-07-25T11:10:36.459Z,100194.75
2022-07-25T11:11:43.226Z,100195.91
2022-07-25T11:12:46.303Z,100193.81
2022-07-25T11:13:50.187Z,100184.28
2022-07-25T11:15:01.224Z,100183.47
2022-07-25T11:16:04.026Z,100187.41
2022-07-25T11:17:19.784Z,100181.06
2022-07-25T11:18:31.497Z,100185.41
2022-07-25T11:19:34.582Z,100186.22
2022-07-25T11:20:36.621Z,100176.44
2022-07-25T11:21:45.583Z,100184.84
2022-07-25T11:22:56.016Z,100190.13
2022-07-25T11:23:58.042Z,100185.47
2022-07-25T11:25:02.152Z,100184.84
2022-07-25T11:26:05.905Z,100194.47
2022-07-25T11:27:12.405Z,100179.56
2022-07-25T11:28:15.998Z,100188.41
2022-07-25T11:29:19.783Z,100190.09
2022-07-25T11:30:24.309Z,100181.44
2022-07-25T11:31:27.876Z,100179.13
2022-07-25T11:32:38.725Z,100182.69
2022-07-25T11:33:44.616Z,100175.53
2022-07-25T11:34:48.983Z,100175.53
2022-07-25T11:35:53.489Z,100171.97
2022-07-25T11:36:58.480Z,100174.41
2022-07-25T11:38:02.415Z,100175.19
2022-07-25T11:39:06.030Z,100174.81
2022-07-25T11:40:10.232Z,100171.34
2022-07-25T11:41:12.500Z,100158.75
2022-07-25T11:42:18.000Z,100164.28
2022-07-25T11:43:20.914Z,100167.97
2022-07-25T11:44:32.081Z,100166.06
2022-07-25T11:45:39.400Z,100158.66
2022-07-25T11:46:44.032Z,100161.97
2022-07-25T11:47:48.014Z,100170.69
2022-07-25T11:48:50.129Z,100170.31
2022-07-25T11:49:54.816Z,100169.97
2022-07-25T11:50:57.557Z,100160.16
2022-07-25T11:52:00.926Z,100163.44
2022-07-25T11:53:06.094Z,100153.66
2022-07-25T11:54:11.063Z,100164.53
2022-07-25T11:55:16.557Z,100160.75
2022-07-25T11:57:47.218Z,100140.59
2022-07-25T11:58:59.011Z,100147.16
2022-07-25T12:00:03.547Z,100137.81
2022-07-25T12:01:15.252Z,100142.00
2022-07-25T12:02:25.954Z,100136.69
2022-07-25T12:03:39.218Z,100125.78
2022-07-25T12:04:42.460Z,100122.75
2022-07-25T12:05:46.150Z,100128.44
2022-07-25T12:06:50.856Z,100129.78
2022-07-25T12:07:54.813Z,100123.19
2022-07-25T12:08:57.889Z,100124.88
2022-07-25T12:09:59.957Z,100120.53
2022-07-25T12:11:03.010Z,100119.75
2022-07-25T12:12:06.549Z,100114.16
2022-07-25T12:13:10.200Z,100125.53